sensor_id;sensor_type;location;lat;lon;timestamp;pressure;altitude;pressure_sealevel;temperature;humidity
78411;BME280;67706;51.074;-1.796;2024-02-16T00:01:05;100216.47;;;11.09;100.00
78411;BME280;67706;51.074;-1.796;2024-02-16T00:03:31;100220.06;;;11.10;100.00
78411;BME280;67706;51.074;-1.796;2024-02-16T00:05:58;100219.00;;;11.11;100.00
78411;BME280;67706;51.074;-1.796;2024-02-16T00:08:25;100202.94;;;11.14;100.00
78411;BME280;67706;51.074;-1.796;2024-02-16T00:10:51;100205.66;;;11.14;100.00
78411;BME280;67706;51.074;-1.796;2024-02-16T00:13:18;100207.59;;;11.14;100.00
78411;BME280;67706;51.074;-1.796;2024-02-16T00:15:46;100207.41;;;11.09;100.00
78411;BME280;67706;51.074;-1.796;2024-02-16T00:18:13;100207.81;;;11.06;100.00
78411;BME280;67706;51.074;-1.796;2024-02-16T00:20:39;100215.84;;;11.07;100.00
78411;BME280;67706;51.074;-1.796;2024-02-16T00:23:06;100228.50;;;11.08;100.00
78411;BME280;67706;51.074;-1.796;2024-02-16T00:25:33;100233.19;;;11.01;100.00
78411;BME280;67706;51.074;-1.796;2024-02-16T00:28:00;100227.47;;;11.03;100.00
78411;BME280;67706;51.074;-1.796;2024-02-16T00:30:26;100242.44;;;11.07;100.00
78411;BME280;67706;51.074;-1.796;2024-02-16T00:32:55;100234.44;;;11.05;100.00
78411;BME280;67706;51.074;-1.796;2024-02-16T00:35:21;100234.00;;;11.02;100.00
78411;BME280;67706;51.074;-1.796;2024-02-16T00:37:48;100226.63;;;11.02;100.00
78411;BME280;67706;51.074;-1.796;2024-02-16T00:40:15;100228.13;;;10.98;100.00
78411;BME280;67706;51.074;-1.796;2024-02-16T00:42:42;100244.81;;;10.97;100.00
78411;BME280;67706;51.074;-1.796;2024-02-16T00:45:09;100250.28;;;10.97;100.00
78411;BME280;67706;51.074;-1.796;2024-02-16T00:47:35;100253.88;;;10.97;100.00
78411;BME280;67706;51.074;-1.796;2024-02-16T00:50:04;100260.84;;;10.93;100.00
78411;BME280;67706;51.074;-1.796;2024-02-16T00:52:33;100243.75;;;10.91;100.00
78411;BME280;67706;51.074;-1.796;2024-02-16T00:55:00;100247.16;;;10.87;100.00
78411;BME280;67706;51.074;-1.796;2024-02-16T00:57:29;100247.97;;;10.87;100.00
78411;BME280;67706;51.074;-1.796;2024-02-16T00:59:56;100255.38;;;10.87;100.00
78411;BME280;67706;51.074;-1.796;2024-02-16T01:02:22;100245.91;;;10.83;100.00
78411;BME280;67706;51.074;-1.796;2024-02-16T01:04:50;100250.31;;;10.84;100.00
78411;BME280;67706;51.074;-1.796;2024-02-16T01:07:18;100261.28;;;10.77;100.00
78411;BME280;67706;51.074;-1.796;2024-02-16T01:09:45;100268.91;;;10.75;100.00
78411;BME280;67706;51.074;-1.796;2024-02-16T01:12:11;100256.88;;;10.76;100.00
78411;BME280;67706;51.074;-1.796;2024-02-16T01:14:38;100251.41;;;10.76;100.00
78411;BME280;67706;51.074;-1.796;2024-02-16T01:17:05;100262.16;;;10.71;100.00
78411;BME280;67706;51.074;-1.796;2024-02-16T01:19:31;100270.38;;;10.71;100.00
78411;BME280;67706;51.074;-1.796;2024-02-16T01:21:58;100269.53;;;10.71;100.00
78411;BME280;67706;51.074;-1.796;2024-02-16T01:24:27;100276.94;;;10.70;100.00
78411;BME280;67706;51.074;-1.796;2024-02-16T01:26:54;100289.81;;;10.70;100.00
78411;BME280;67706;51.074;-1.796;2024-02-16T01:29:20;100290.00;;;10.68;100.00
78411;BME280;67706;51.074;-1.796;2024-02-16T01:31:48;100286.63;;;10.66;100.00
78411;BME280;67706;51.074;-1.796;2024-02-16T01:34:14;100279.69;;;10.70;100.00
78411;BME280;67706;51.074;-1.796;2024-02-16T01:36:41;100277.75;;;10.77;100.00
78411;BME280;67706;51.074;-1.796;2024-02-16T01:39:07;100282.63;;;10.75;100.00
78411;BME280;67706;51.074;-1.796;2024-02-16T01:41:38;100286.44;;;10.74;100.00
78411;BME280;67706;51.074;-1.796;2024-02-16T01:44:05;100273.97;;;10.72;100.00
78411;BME280;67706;51.074;-1.796;2024-02-16T01:46:32;100274.38;;;10.75;100.00
78411;BME280;67706;51.074;-1.796;2024-02-16T01:48:59;100282.19;;;10.78;100.00
78411;BME280;67706;51.074;-1.796;2024-02-16T01:51:26;100293.59;;;10.75;100.00
78411;BME280;67706;51.074;-1.796;2024-02-16T01:53:54;100294.22;;;10.77;100.00
78411;BME280;67706;51.074;-1.796;2024-02-16T01:56:22;100303.53;;;10.76;100.00
78411;BME280;67706;51.074;-1.796;2024-02-16T01:58:52;100293.59;;;10.75;100.00
78411;BME280;67706;51.074;-1.796;2024-02-16T02:01:18;100300.78;;;10.83;100.00
78411;BME280;67706;51.074;-1.796;2024-02-16T02:03:45;100296.97;;;10.77;100.00
78411;BME280;67706;51.074;-1.796;2024-02-16T02:06:12;100310.06;;;10.69;100.00
78411;BME280;67706;51.074;-1.796;2024-02-16T02:08:38;100321.88;;;10.69;100.00
78411;BME280;67706;51.074;-1.796;2024-02-16T02:11:06;100331.16;;;10.68;100.00
78411;BME280;67706;51.074;-1.796;2024-02-16T02:13:32;100336.00;;;10.66;100.00
78411;BME280;67706;51.074;-1.796;2024-02-16T02:16:00;100333.25;;;10.66;100.00
78411;BME280;67706;51.074;-1.796;2024-02-16T02:18:29;100344.22;;;10.66;100.00
78411;BME280;67706;51.074;-1.796;2024-02-16T02:20:55;100352.03;;;10.69;100.00
78411;BME280;67706;51.074;-1.796;2024-02-16T02:23:23;100380.09;;;10.65;100.00
78411;BME280;67706;51.074;-1.796;2024-02-16T02:25:50;100381.38;;;10.69;100.00
78411;BME280;67706;51.074;-1.796;2024-02-16T02:28:17;100391.09;;;10.71;100.00
78411;BME280;67706;51.074;-1.796;2024-02-16T02:30:45;100382.00;;;10.64;100.00
78411;BME280;67706;51.074;-1.796;2024-02-16T02:33:11;100384.75;;;10.64;100.00
78411;BME280;67706;51.074;-1.796;2024-02-16T02:35:39;100384.75;;;10.64;100.00
78411;BME280;67706;51.074;-1.796;2024-02-16T02:38:05;100381.16;;;10.57;100.00
78411;BME280;67706;51.074;-1.796;2024-02-16T02:40:33;100390.25;;;10.58;100.00
78411;BME280;67706;51.074;-1.796;2024-02-16T02:43:00;100397.63;;;10.57;100.00
78411;BME280;67706;51.074;-1.796;2024-02-16T02:45:27;100398.66;;;10.56;100.00
78411;BME280;67706;51.074;-1.796;2024-02-16T02:47:53;100408.78;;;10.62;100.00
78411;BME280;67706;51.074;-1.796;2024-02-16T02:50:20;100407.31;;;10.53;100.00
78411;BME280;67706;51.074;-1.796;2024-02-16T02:52:47;100395.72;;;10.51;100.00
78411;BME280;67706;51.074;-1.796;2024-02-16T02:55:13;100404.56;;;10.53;100.00
78411;BME280;67706;51.074;-1.796;2024-02-16T02:57:41;100410.47;;;10.50;100.00
78411;BME280;67706;51.074;-1.796;2024-02-16T03:00:09;100411.09;;;10.46;100.00
78411;BME280;67706;51.074;-1.796;2024-02-16T03:02:37;100411.09;;;10.46;100.00
78411;BME280;67706;51.074;-1.796;2024-02-16T03:05:05;100414.88;;;10.38;100.00
78411;BME280;67706;51.074;-1.796;2024-02-16T03:07:32;100407.69;;;10.37;100.00
78411;BME280;67706;51.074;-1.796;2024-02-16T03:09:59;100401.16;;;10.38;100.00
78411;BME280;67706;51.074;-1.796;2024-02-16T03:12:25;100405.16;;;10.35;100.00
78411;BME280;67706;51.074;-1.796;2024-02-16T03:14:54;100405.78;;;10.31;100.00
78411;BME280;67706;51.074;-1.796;2024-02-16T03:17:21;100411.03;;;10.26;100.00
78411;BME280;67706;51.074;-1.796;2024-02-16T03:19:48;100407.88;;;10.29;100.00
78411;BME280;67706;51.074;-1.796;2024-02-16T03:22:14;100409.34;;;10.25;100.00
78411;BME280;67706;51.074;-1.796;2024-02-16T03:24:41;100419.28;;;10.26;100.00
78411;BME280;67706;51.074;-1.796;2024-02-16T03:27:10;100431.50;;;10.30;100.00
78411;BME280;67706;51.074;-1.796;2024-02-16T03:29:37;100425.56;;;10.26;100.00
78411;BME280;67706;51.074;-1.796;2024-02-16T03:32:05;100438.22;;;10.21;100.00
78411;BME280;67706;51.074;-1.796;2024-02-16T03:34:31;100444.13;;;10.18;100.00
78411;BME280;67706;51.074;-1.796;2024-02-16T03:36:58;100448.31;;;10.14;100.00
78411;BME280;67706;51.074;-1.796;2024-02-16T03:39:25;100446.66;;;10.19;100.00
78411;BME280;67706;51.074;-1.796;2024-02-16T03:41:51;100453.19;;;10.25;100.00
78411;BME280;67706;51.074;-1.796;2024-02-16T03:44:18;100454.66;;;10.21;100.00
78411;BME280;67706;51.074;-1.796;2024-02-16T03:46:45;100459.91;;;10.16;100.00
78411;BME280;67706;51.074;-1.796;2024-02-16T03:49:13;100460.56;;;10.18;100.00
78411;BME280;67706;51.074;-1.796;2024-02-16T03:51:39;100463.72;;;10.15;100.00
78411;BME280;67706;51.074;-1.796;2024-02-16T03:54:06;100469.41;;;10.13;100.00
78411;BME280;67706;51.074;-1.796;2024-02-16T03:56:33;100463.66;;;10.08;100.00
78411;BME280;67706;51.074;-1.796;2024-02-16T03:59:00;100469.97;;;10.09;100.00
78411;BME280;67706;51.074;-1.796;2024-02-16T04:01:29;100474.34;;;10.03;100.00
78411;BME280;67706;51.074;-1.796;2024-02-16T04:03:55;100488.22;;;9.95;100.00
78411;BME280;67706;51.074;-1.796;2024-02-16T04:06:23;100485.06;;;9.92;100.00
78411;BME280;67706;51.074;-1.796;2024-02-16T04:08:50;100496.41;;;9.89;100.00
78411;BME280;67706;51.074;-1.796;2024-02-16T04:11:17;100493.88;;;9.87;100.00
78411;BME280;67706;51.074;-1.796;2024-02-16T04:13:43;100489.41;;;9.80;100.00
78411;BME280;67706;51.074;-1.796;2024-02-16T04:16:10;100502.91;;;9.81;100.00
78411;BME280;67706;51.074;-1.796;2024-02-16T04:18:36;100503.28;;;9.78;100.00
78411;BME280;67706;51.074;-1.796;2024-02-16T04:21:04;100511.50;;;9.78;100.00
78411;BME280;67706;51.074;-1.796;2024-02-16T04:23:32;100510.22;;;9.74;100.00
78411;BME280;67706;51.074;-1.796;2024-02-16T04:25:58;100516.34;;;9.70;100.00
78411;BME280;67706;51.074;-1.796;2024-02-16T04:28:25;100526.66;;;9.74;100.00
78411;BME280;67706;51.074;-1.796;2024-02-16T04:30:51;100531.06;;;9.69;100.00
78411;BME280;67706;51.074;-1.796;2024-02-16T04:33:18;100529.56;;;9.66;100.00
78411;BME280;67706;51.074;-1.796;2024-02-16T04:35:45;100541.31;;;9.60;100.00
78411;BME280;67706;51.074;-1.796;2024-02-16T04:38:13;100548.66;;;9.59;100.00
78411;BME280;67706;51.074;-1.796;2024-02-16T04:40:41;100553.28;;;9.52;100.00
78411;BME280;67706;51.074;-1.796;2024-02-16T04:43:08;100555.59;;;9.55;100.00
78411;BME280;67706;51.074;-1.796;2024-02-16T04:45:35;100552.84;;;9.55;100.00
78411;BME280;67706;51.074;-1.796;2024-02-16T04:48:05;100558.28;;;9.49;100.00
78411;BME280;67706;51.074;-1.796;2024-02-16T04:50:32;100563.50;;;9.44;100.00
78411;BME280;67706;51.074;-1.796;2024-02-16T04:52:59;100566.47;;;9.42;100.00
78411;BME280;67706;51.074;-1.796;2024-02-16T04:55:26;100575.44;;;9.36;100.00
78411;BME280;67706;51.074;-1.796;2024-02-16T04:57:54;100583.59;;;9.30;100.00
78411;BME280;67706;51.074;-1.796;2024-02-16T05:00:21;100589.25;;;9.28;100.00
78411;BME280;67706;51.074;-1.796;2024-02-16T05:02:48;100587.75;;;9.26;100.00
78411;BME280;67706;51.074;-1.796;2024-02-16T05:05:14;100599.38;;;9.28;100.00
78411;BME280;67706;51.074;-1.796;2024-02-16T05:07:42;100602.88;;;9.22;100.00
78411;BME280;67706;51.074;-1.796;2024-02-16T05:10:09;100603.47;;;9.17;100.00
78411;BME280;67706;51.074;-1.796;2024-02-16T05:12:36;100612.72;;;9.16;100.00
78411;BME280;67706;51.074;-1.796;2024-02-16T05:15:05;100624.03;;;9.13;100.00
78411;BME280;67706;51.074;-1.796;2024-02-16T05:17:32;100629.63;;;9.05;100.00
78411;BME280;67706;51.074;-1.796;2024-02-16T05:19:59;100637.03;;;9.05;100.00
78411;BME280;67706;51.074;-1.796;2024-02-16T05:22:25;100636.81;;;9.06;100.00
78411;BME280;67706;51.074;-1.796;2024-02-16T05:24:52;100642.50;;;9.05;100.00
78411;BME280;67706;51.074;-1.796;2024-02-16T05:27:18;100654.00;;;9.00;100.00
78411;BME280;67706;51.074;-1.796;2024-02-16T05:29:45;100655.97;;;9.06;100.00
78411;BME280;67706;51.074;-1.796;2024-02-16T05:32:13;100663.13;;;9.07;100.00
78411;BME280;67706;51.074;-1.796;2024-02-16T05:34:40;100667.19;;;8.97;100.00
78411;BME280;67706;51.074;-1.796;2024-02-16T05:37:07;100669.94;;;8.97;100.00
78411;BME280;67706;51.074;-1.796;2024-02-16T05:39:36;100671.25;;;9.01;100.00
78411;BME280;67706;51.074;-1.796;2024-02-16T05:42:19;100668.72;;;8.99;100.00
78411;BME280;67706;51.074;-1.796;2024-02-16T05:44:46;100686.44;;;9.03;100.00
78411;BME280;67706;51.074;-1.796;2024-02-16T05:47:15;100679.19;;;8.96;100.00
78411;BME280;67706;51.074;-1.796;2024-02-16T05:49:42;100681.84;;;8.89;100.00
78411;BME280;67706;51.074;-1.796;2024-02-16T05:52:08;100679.75;;;8.91;100.00
78411;BME280;67706;51.074;-1.796;2024-02-16T05:54:44;100685.81;;;8.87;100.00
78411;BME280;67706;51.074;-1.796;2024-02-16T05:57:10;100686.19;;;8.84;100.00
78411;BME280;67706;51.074;-1.796;2024-02-16T05:59:38;100686.00;;;8.85;100.00
78411;BME280;67706;51.074;-1.796;2024-02-16T06:02:05;100699.88;;;8.84;100.00
78411;BME280;67706;51.074;-1.796;2024-02-16T06:04:33;100698.94;;;8.76;100.00
78411;BME280;67706;51.074;-1.796;2024-02-16T06:07:00;100705.41;;;8.75;100.00
78411;BME280;67706;51.074;-1.796;2024-02-16T06:09:27;100715.63;;;8.67;100.00
78411;BME280;67706;51.074;-1.796;2024-02-16T06:12:00;100709.56;;;8.71;100.00
78411;BME280;67706;51.074;-1.796;2024-02-16T06:14:29;100715.25;;;8.70;100.00
78411;BME280;67706;51.074;-1.796;2024-02-16T06:16:55;100717.31;;;8.68;100.00
78411;BME280;67706;51.074;-1.796;2024-02-16T06:19:22;100720.44;;;8.65;100.00
78411;BME280;67706;51.074;-1.796;2024-02-16T06:21:50;100728.66;;;8.65;100.00
78411;BME280;67706;51.074;-1.796;2024-02-16T06:24:17;100739.09;;;8.61;100.00
78411;BME280;67706;51.074;-1.796;2024-02-16T06:26:44;100742.50;;;8.63;100.00
78411;BME280;67706;51.074;-1.796;2024-02-16T06:29:11;100744.84;;;8.52;100.00
78411;BME280;67706;51.074;-1.796;2024-02-16T06:31:37;100747.03;;;8.56;100.00
78411;BME280;67706;51.074;-1.796;2024-02-16T06:34:04;100755.03;;;8.58;100.00
78411;BME280;67706;51.074;-1.796;2024-02-16T06:36:30;100765.00;;;8.51;100.00
78411;BME280;67706;51.074;-1.796;2024-02-16T06:38:58;100765.00;;;8.51;100.00
78411;BME280;67706;51.074;-1.796;2024-02-16T06:41:25;100770.94;;;8.40;100.00
78411;BME280;67706;51.074;-1.796;2024-02-16T06:43:52;100776.31;;;8.33;100.00
78411;BME280;67706;51.074;-1.796;2024-02-16T06:46:18;100791.53;;;8.28;100.00
78411;BME280;67706;51.074;-1.796;2024-02-16T06:48:45;100788.38;;;8.39;100.00
78411;BME280;67706;51.074;-1.796;2024-02-16T06:51:12;100803.78;;;8.32;100.00
78411;BME280;67706;51.074;-1.796;2024-02-16T06:53:38;100801.38;;;8.37;100.00
78411;BME280;67706;51.074;-1.796;2024-02-16T06:56:07;100810.13;;;8.32;100.00
78411;BME280;67706;51.074;-1.796;2024-02-16T06:58:34;100813.75;;;8.25;100.00
78411;BME280;67706;51.074;-1.796;2024-02-16T07:01:01;100816.03;;;8.13;100.00
78411;BME280;67706;51.074;-1.796;2024-02-16T07:03:28;100812.97;;;8.16;100.00
78411;BME280;67706;51.074;-1.796;2024-02-16T07:05:54;100822.44;;;8.28;100.00
78411;BME280;67706;51.074;-1.796;2024-02-16T07:08:21;100822.69;;;8.19;100.00
78411;BME280;67706;51.074;-1.796;2024-02-16T07:10:49;100823.34;;;8.21;100.00
78411;BME280;67706;51.074;-1.796;2024-02-16T07:13:18;100828.88;;;8.13;100.00
78411;BME280;67706;51.074;-1.796;2024-02-16T07:15:45;100834.16;;;8.14;100.00
78411;BME280;67706;51.074;-1.796;2024-02-16T07:18:12;100839.81;;;8.13;100.00
78411;BME280;67706;51.074;-1.796;2024-02-16T07:20:40;100851.69;;;8.20;100.00
78411;BME280;67706;51.074;-1.796;2024-02-16T07:23:06;100846.22;;;8.20;100.00
78411;BME280;67706;51.074;-1.796;2024-02-16T07:25:34;100862.63;;;8.20;100.00
78411;BME280;67706;51.074;-1.796;2024-02-16T07:28:01;100868.09;;;8.20;100.00
78411;BME280;67706;51.074;-1.796;2024-02-16T07:30:29;100864.66;;;8.26;100.00
78411;BME280;67706;51.074;-1.796;2024-02-16T07:32:56;100874.56;;;8.27;100.00
78411;BME280;67706;51.074;-1.796;2024-02-16T07:35:23;100877.13;;;8.28;100.00
78411;BME280;67706;51.074;-1.796;2024-02-16T07:37:49;100886.88;;;8.23;100.00
78411;BME280;67706;51.074;-1.796;2024-02-16T07:40:17;100893.22;;;8.15;100.00
78411;BME280;67706;51.074;-1.796;2024-02-16T07:42:45;100897.53;;;8.10;100.00
78411;BME280;67706;51.074;-1.796;2024-02-16T07:45:12;100906.75;;;8.09;100.00
78411;BME280;67706;51.074;-1.796;2024-02-16T07:47:40;100914.59;;;8.12;100.00
78411;BME280;67706;51.074;-1.796;2024-02-16T07:50:08;100908.03;;;8.29;100.00
78411;BME280;67706;51.074;-1.796;2024-02-16T07:52:34;100919.44;;;8.32;100.00
78411;BME280;67706;51.074;-1.796;2024-02-16T07:55:01;100924.44;;;8.29;100.00
78411;BME280;67706;51.074;-1.796;2024-02-16T07:57:27;100925.38;;;8.36;100.00
78411;BME280;67706;51.074;-1.796;2024-02-16T07:59:56;100936.63;;;8.41;100.00
78411;BME280;67706;51.074;-1.796;2024-02-16T08:02:22;100943.09;;;8.48;100.00
78411;BME280;67706;51.074;-1.796;2024-02-16T08:04:51;100936.22;;;8.52;100.00
78411;BME280;67706;51.074;-1.796;2024-02-16T08:07:18;100942.16;;;8.55;100.00
78411;BME280;67706;51.074;-1.796;2024-02-16T08:09:45;100945.69;;;8.64;100.00
78411;BME280;67706;51.074;-1.796;2024-02-16T08:12:12;100950.19;;;8.79;100.00
78411;BME280;67706;51.074;-1.796;2024-02-16T08:14:38;100957.81;;;8.84;100.00
78411;BME280;67706;51.074;-1.796;2024-02-16T08:17:05;100963.19;;;9.00;100.00
78411;BME280;67706;51.074;-1.796;2024-02-16T08:19:33;100973.00;;;9.09;100.00
78411;BME280;67706;51.074;-1.796;2024-02-16T08:22:01;100975.72;;;9.09;100.00
78411;BME280;67706;51.074;-1.796;2024-02-16T08:24:28;100989.38;;;9.17;100.00
78411;BME280;67706;51.074;-1.796;2024-02-16T08:26:55;100993.03;;;9.24;100.00
78411;BME280;67706;51.074;-1.796;2024-02-16T08:29:21;101000.97;;;9.19;100.00
78411;BME280;67706;51.074;-1.796;2024-02-16T08:31:49;101008.22;;;9.12;100.00
78411;BME280;67706;51.074;-1.796;2024-02-16T08:34:15;101018.63;;;9.17;100.00
78411;BME280;67706;51.074;-1.796;2024-02-16T08:36:43;101014.66;;;9.19;100.00
78411;BME280;67706;51.074;-1.796;2024-02-16T08:39:12;101025.25;;;9.37;100.00
78411;BME280;67706;51.074;-1.796;2024-02-16T08:41:38;101030.97;;;9.50;100.00
78411;BME280;67706;51.074;-1.796;2024-02-16T08:44:06;101025.47;;;9.50;100.00
78411;BME280;67706;51.074;-1.796;2024-02-16T08:46:34;101028.69;;;9.53;100.00
78411;BME280;67706;51.074;-1.796;2024-02-16T08:49:01;101042.78;;;9.50;100.00
78411;BME280;67706;51.074;-1.796;2024-02-16T08:51:28;101042.94;;;9.49;100.00
78411;BME280;67706;51.074;-1.796;2024-02-16T08:53:55;101050.78;;;9.52;100.00
78411;BME280;67706;51.074;-1.796;2024-02-16T08:56:23;101058.16;;;9.51;100.00
78411;BME280;67706;51.074;-1.796;2024-02-16T08:58:49;101059.19;;;9.50;100.00
78411;BME280;67706;51.074;-1.796;2024-02-16T09:01:16;101067.34;;;9.58;100.00
78411;BME280;67706;51.074;-1.796;2024-02-16T09:03:43;101067.53;;;9.57;100.00
78411;BME280;67706;51.074;-1.796;2024-02-16T09:06:10;101066.28;;;9.59;100.00
78411;BME280;67706;51.074;-1.796;2024-02-16T09:08:38;101081.50;;;9.62;100.00
78411;BME280;67706;51.074;-1.796;2024-02-16T09:11:05;101074.59;;;9.66;100.00
78411;BME280;67706;51.074;-1.796;2024-02-16T09:13:33;101076.03;;;9.62;100.00
78411;BME280;67706;51.074;-1.796;2024-02-16T09:16:01;101081.31;;;9.63;100.00
78411;BME280;67706;51.074;-1.796;2024-02-16T09:18:28;101085.09;;;9.63;100.00
78411;BME280;67706;51.074;-1.796;2024-02-16T09:20:55;101098.91;;;9.69;100.00
78411;BME280;67706;51.074;-1.796;2024-02-16T09:23:22;101093.63;;;9.68;100.00
78411;BME280;67706;51.074;-1.796;2024-02-16T09:25:48;101104.94;;;9.65;100.00
78411;BME280;67706;51.074;-1.796;2024-02-16T09:28:16;101113.34;;;9.63;100.00
78411;BME280;67706;51.074;-1.796;2024-02-16T09:30:45;101118.31;;;9.59;100.00
78411;BME280;67706;51.074;-1.796;2024-02-16T09:33:12;101127.59;;;9.58;100.00
78411;BME280;67706;51.074;-1.796;2024-02-16T09:35:39;101120.94;;;9.76;100.00
78411;BME280;67706;51.074;-1.796;2024-02-16T09:38:06;101129.63;;;9.79;100.00
78411;BME280;67706;51.074;-1.796;2024-02-16T09:40:35;101128.22;;;9.83;100.00
78411;BME280;67706;51.074;-1.796;2024-02-16T09:43:02;101131.53;;;9.93;100.00
78411;BME280;67706;51.074;-1.796;2024-02-16T09:45:30;101135.44;;;9.99;100.00
78411;BME280;67706;51.074;-1.796;2024-02-16T09:47:58;101135.34;;;10.07;100.00
78411;BME280;67706;51.074;-1.796;2024-02-16T09:50:25;101148.00;;;10.08;100.00
78411;BME280;67706;51.074;-1.796;2024-02-16T09:52:54;101143.56;;;10.07;100.00
78411;BME280;67706;51.074;-1.796;2024-02-16T09:55:21;101148.31;;;10.13;100.00
78411;BME280;67706;51.074;-1.796;2024-02-16T09:57:58;101144.28;;;10.23;100.00
78411;BME280;67706;51.074;-1.796;2024-02-16T10:00:25;101152.22;;;10.33;100.00
78411;BME280;67706;51.074;-1.796;2024-02-16T10:02:52;101150.31;;;10.33;100.00
78411;BME280;67706;51.074;-1.796;2024-02-16T10:05:20;101160.06;;;10.36;100.00
78411;BME280;67706;51.074;-1.796;2024-02-16T10:07:47;101157.78;;;10.54;100.00
78411;BME280;67706;51.074;-1.796;2024-02-16T10:10:20;101161.69;;;10.45;100.00
78411;BME280;67706;51.074;-1.796;2024-02-16T10:12:47;101167.06;;;10.53;100.00
78411;BME280;67706;51.074;-1.796;2024-02-16T10:15:19;101173.88;;;10.72;100.00
78411;BME280;67706;51.074;-1.796;2024-02-16T10:17:57;101176.41;;;10.88;100.00
78411;BME280;67706;51.074;-1.796;2024-02-16T10:20:25;101174.59;;;10.95;100.00
78411;BME280;67706;51.074;-1.796;2024-02-16T10:23:02;101180.34;;;11.00;100.00
78411;BME280;67706;51.074;-1.796;2024-02-16T10:25:29;101176.66;;;11.07;100.00
78411;BME280;67706;51.074;-1.796;2024-02-16T10:27:57;101182.81;;;11.09;100.00
78411;BME280;67706;51.074;-1.796;2024-02-16T10:30:26;101191.19;;;11.23;100.00
78411;BME280;67706;51.074;-1.796;2024-02-16T10:32:55;101185.22;;;11.19;100.00
78411;BME280;67706;51.074;-1.796;2024-02-16T10:35:22;101179.69;;;11.34;100.00
78411;BME280;67706;51.074;-1.796;2024-02-16T10:37:53;101185.00;;;11.35;100.00
78411;BME280;67706;51.074;-1.796;2024-02-16T10:40:22;101187.56;;;11.37;100.00
78411;BME280;67706;51.074;-1.796;2024-02-16T10:42:49;101187.94;;;11.34;100.00
78411;BME280;67706;51.074;-1.796;2024-02-16T10:45:16;101191.44;;;11.28;100.00
78411;BME280;67706;51.074;-1.796;2024-02-16T10:47:43;101201.81;;;11.11;100.00
78411;BME280;67706;51.074;-1.796;2024-02-16T10:50:10;101202.13;;;11.01;100.00
78411;BME280;67706;51.074;-1.796;2024-02-16T10:52:39;101211.72;;;10.91;100.00
78411;BME280;67706;51.074;-1.796;2024-02-16T10:55:08;101203.06;;;10.94;100.00
78411;BME280;67706;51.074;-1.796;2024-02-16T10:57:35;101219.94;;;10.91;100.00
78411;BME280;67706;51.074;-1.796;2024-02-16T11:00:08;101218.97;;;10.98;100.00
78411;BME280;67706;51.074;-1.796;2024-02-16T11:02:53;101229.00;;;11.06;100.00
78411;BME280;67706;51.074;-1.796;2024-02-16T11:05:32;101232.88;;;11.11;100.00
78411;BME280;67706;51.074;-1.796;2024-02-16T11:08:00;101216.88;;;11.15;100.00
78411;BME280;67706;51.074;-1.796;2024-02-16T11:10:28;101225.41;;;11.05;100.00
78411;BME280;67706;51.074;-1.796;2024-02-16T11:13:00;101228.16;;;11.05;100.00
78411;BME280;67706;51.074;-1.796;2024-02-16T11:15:28;101228.38;;;11.25;100.00
78411;BME280;67706;51.074;-1.796;2024-02-16T11:17:56;101228.34;;;11.40;100.00
78411;BME280;67706;51.074;-1.796;2024-02-16T11:20:24;101232.13;;;11.53;100.00
78411;BME280;67706;51.074;-1.796;2024-02-16T11:22:51;101235.09;;;11.58;100.00
78411;BME280;67706;51.074;-1.796;2024-02-16T11:25:18;101237.00;;;11.72;100.00
78411;BME280;67706;51.074;-1.796;2024-02-16T11:27:47;101244.69;;;11.77;100.00
78411;BME280;67706;51.074;-1.796;2024-02-16T11:30:14;101237.38;;;11.69;100.00
78411;BME280;67706;51.074;-1.796;2024-02-16T11:32:42;101241.66;;;11.72;100.00
78411;BME280;67706;51.074;-1.796;2024-02-16T11:35:09;101250.38;;;11.61;100.00
78411;BME280;67706;51.074;-1.796;2024-02-16T11:37:36;101252.72;;;11.78;100.00
78411;BME280;67706;51.074;-1.796;2024-02-16T11:40:04;101251.06;;;11.84;100.00
78411;BME280;67706;51.074;-1.796;2024-02-16T11:42:33;101255.72;;;11.83;100.00
78411;BME280;67706;51.074;-1.796;2024-02-16T11:45:02;101255.19;;;11.73;100.00
78411;BME280;67706;51.074;-1.796;2024-02-16T11:47:28;101260.22;;;11.70;100.00
78411;BME280;67706;51.074;-1.796;2024-02-16T11:50:03;101273.53;;;11.66;100.00
78411;BME280;67706;51.074;-1.796;2024-02-16T11:52:30;101263.44;;;11.59;100.00
78411;BME280;67706;51.074;-1.796;2024-02-16T11:54:56;101269.34;;;11.56;100.00
78411;BME280;67706;51.074;-1.796;2024-02-16T11:57:26;101274.97;;;11.48;100.00
78411;BME280;67706;51.074;-1.796;2024-02-16T11:59:53;101272.25;;;11.54;100.00
78411;BME280;67706;51.074;-1.796;2024-02-16T12:02:23;101263.84;;;11.56;100.00
78411;BME280;67706;51.074;-1.796;2024-02-16T12:04:57;101279.00;;;11.66;100.00
78411;BME280;67706;51.074;-1.796;2024-02-16T12:07:25;101283.16;;;11.77;100.00
78411;BME280;67706;51.074;-1.796;2024-02-16T12:09:56;101268.78;;;11.60;100.00
78411;BME280;67706;51.074;-1.796;2024-02-16T12:12:23;101281.44;;;11.76;100.00
78411;BME280;67706;51.074;-1.796;2024-02-16T12:14:50;101281.91;;;11.65;100.00
78411;BME280;67706;51.074;-1.796;2024-02-16T12:17:17;101273.91;;;11.84;100.00
78411;BME280;67706;51.074;-1.796;2024-02-16T12:19:45;101265.22;;;12.02;100.00
78411;BME280;67706;51.074;-1.796;2024-02-16T12:22:16;101258.25;;;12.27;100.00
78411;BME280;67706;51.074;-1.796;2024-02-16T12:24:44;101261.75;;;12.42;100.00
78411;BME280;67706;51.074;-1.796;2024-02-16T12:27:10;101264.94;;;12.18;100.00
78411;BME280;67706;51.074;-1.796;2024-02-16T12:29:38;101256.25;;;11.93;100.00
78411;BME280;67706;51.074;-1.796;2024-02-16T12:32:05;101265.34;;;11.94;100.00
78411;BME280;67706;51.074;-1.796;2024-02-16T12:34:32;101271.81;;;11.86;100.00
78411;BME280;67706;51.074;-1.796;2024-02-16T12:37:00;101268.34;;;11.78;100.00